Aeroporto :
LOGIN :

Iscrizione | Disclaimer

   EN    FR    IT 

 










Sommario :    VFR   VFR Marginale   IFR   IFR Intensivo   IFR Molto Intensivo
Visibilità : 
Base nubi : 
>= 8 km
>= 3000ft
5 / 8 km
1000 / 3000 ft
1500m / 5 km
500 / 1000 ft
800 / 1500m
200 / 500 ft
< 800m
< 200 ft
Simboli :   Temporali  Nebbia  Neve Forte  Precipitazioni Forti  Vento > 20 kt
SIGMETs :   Varie  Temporali  Ghiacco  Turbolenza  Onda orograficha  Ceneri Vulcaniche






- Altitudine del aeroporto : 124 ft
- Codice IATA : AVN


LFMV - Avignon Caumont

ULTIMO METAR :
  • 171300Z AUTO 32015KT 9999 SCT052 10/03 Q1005 NOSIG

METARs OBSOLETI :
  • 171230Z AUTO 31013KT 280V340 CAVOK 10/03 Q1005 NOSIG
  • 171200Z AUTO 30015KT 270V330 CAVOK 10/03 Q1005 TEMPO 34015G25KT
  • 171130Z AUTO 31012KT CAVOK 09/03 Q1005 TEMPO 34015G25KT
  • 171100Z AUTO 33013KT CAVOK 09/03 Q1005 BECMG 34015G25KT
  • 171030Z AUTO 34010KT CAVOK 08/03 Q1005 BECMG 34015G25KT

TAF AMD TAF LFMV
Valido dal 17 a 09 ore il 18 a 09 ore UTC


170920Z 1709/1809 30008KT CAVOK
BECMG 1711/1712 34015G25KT
BECMG 1713/1714 32010KT
BECMG 1801/1802 36010KT
ATIS : +33 4 90 84 32 84



MetMap, La meteo Aeronautica in un colpo d'occhio ! - Copyright ORBIFLY Dicembre 2007 - Disclaimer

ORBIFLY MET'MAP TEAM :

Programmazione e sviluppo : Alexandra Zaïnal
Concezione e sviluppo : Baudouin d'Aumeries
Co-Programmazione e sviluppo : Marc-Olivier Méhu
Supporto tecnico e logistico : Manuel Goepfert
Aiuto per la traduzione : Arnaldo La Scala

Contatto : metmap@orbifly.com




FONTI E CREDITI :

   NOAA